sensor_id;sensor_type;location;lat;lon;timestamp;pressure;altitude;pressure_sealevel;temperature;humidity
69219;BME280;56232;53.384;-2.732;2023-06-26T00:02:22;101038.54;;;15.90;29.20
69219;BME280;56232;53.384;-2.732;2023-06-26T00:04:48;101038.52;;;16.46;29.12
69219;BME280;56232;53.384;-2.732;2023-06-26T00:07:14;101044.47;;;15.37;29.05
69219;BME280;56232;53.384;-2.732;2023-06-26T00:09:40;101046.41;;;15.32;29.03
69219;BME280;56232;53.384;-2.732;2023-06-26T00:12:06;101049.57;;;16.39;29.04
69219;BME280;56232;53.384;-2.732;2023-06-26T00:14:31;101047.03;;;15.30;29.02
69219;BME280;56232;53.384;-2.732;2023-06-26T00:16:57;101046.12;;;16.45;28.93
69219;BME280;56232;53.384;-2.732;2023-06-26T00:19:22;101047.16;;;15.95;28.88
69219;BME280;56232;53.384;-2.732;2023-06-26T00:21:48;101048.69;;;15.27;28.87
69219;BME280;56232;53.384;-2.732;2023-06-26T00:24:14;101048.74;;;16.31;28.84
69219;BME280;56232;53.384;-2.732;2023-06-26T00:26:40;101048.40;;;16.16;28.85
69219;BME280;56232;53.384;-2.732;2023-06-26T00:29:05;101052.49;;;16.02;28.89
69219;BME280;56232;53.384;-2.732;2023-06-26T00:31:31;101050.36;;;15.93;28.99
69219;BME280;56232;53.384;-2.732;2023-06-26T00:33:56;101051.63;;;15.86;29.04
69219;BME280;56232;53.384;-2.732;2023-06-26T00:36:22;101055.26;;;15.78;29.02
69219;BME280;56232;53.384;-2.732;2023-06-26T00:38:48;101059.10;;;15.77;29.03
69219;BME280;56232;53.384;-2.732;2023-06-26T00:41:13;101058.09;;;15.75;28.97
69219;BME280;56232;53.384;-2.732;2023-06-26T00:43:40;101057.82;;;15.72;28.98
69219;BME280;56232;53.384;-2.732;2023-06-26T00:46:05;101060.26;;;15.60;28.84
69219;BME280;56232;53.384;-2.732;2023-06-26T00:48:31;101060.56;;;15.44;29.02
69219;BME280;56232;53.384;-2.732;2023-06-26T00:50:56;101058.96;;;15.30;29.14
69219;BME280;56232;53.384;-2.732;2023-06-26T00:53:22;101060.71;;;15.82;29.08
69219;BME280;56232;53.384;-2.732;2023-06-26T00:55:47;101063.03;;;15.32;29.16
69219;BME280;56232;53.384;-2.732;2023-06-26T00:58:13;101064.52;;;15.30;29.17
69219;BME280;56232;53.384;-2.732;2023-06-26T01:00:39;101065.60;;;16.30;29.15
69219;BME280;56232;53.384;-2.732;2023-06-26T01:03:04;101067.24;;;15.18;29.20
69219;BME280;56232;53.384;-2.732;2023-06-26T01:05:30;101073.33;;;15.66;29.30
69219;BME280;56232;53.384;-2.732;2023-06-26T01:07:57;101076.84;;;15.71;29.31
69219;BME280;56232;53.384;-2.732;2023-06-26T01:10:22;101080.05;;;15.71;29.16
69219;BME280;56232;53.384;-2.732;2023-06-26T01:12:47;101080.02;;;15.24;29.18
69219;BME280;56232;53.384;-2.732;2023-06-26T01:15:13;101080.55;;;15.76;29.10
69219;BME280;56232;53.384;-2.732;2023-06-26T01:17:40;101081.47;;;15.80;29.14
69219;BME280;56232;53.384;-2.732;2023-06-26T01:20:06;101082.29;;;15.32;29.05
69219;BME280;56232;53.384;-2.732;2023-06-26T01:22:36;101085.71;;;15.31;29.12
69219;BME280;56232;53.384;-2.732;2023-06-26T01:25:03;101089.06;;;15.27;28.93
69219;BME280;56232;53.384;-2.732;2023-06-26T01:27:22;101085.77;;;15.60;29.00
69219;BME280;56232;53.384;-2.732;2023-06-26T01:29:48;101087.21;;;15.04;29.04
69219;BME280;56232;53.384;-2.732;2023-06-26T01:32:12;101085.19;;;15.00;29.32
69219;BME280;56232;53.384;-2.732;2023-06-26T01:34:38;101085.48;;;15.49;29.29
69219;BME280;56232;53.384;-2.732;2023-06-26T01:37:04;101084.89;;;15.52;29.20
69219;BME280;56232;53.384;-2.732;2023-06-26T01:39:29;101087.66;;;16.05;29.28
69219;BME280;56232;53.384;-2.732;2023-06-26T01:41:55;101087.33;;;14.94;29.30
69219;BME280;56232;53.384;-2.732;2023-06-26T01:44:26;101091.03;;;15.46;29.28
69219;BME280;56232;53.384;-2.732;2023-06-26T01:46:51;101092.85;;;15.02;29.23
69219;BME280;56232;53.384;-2.732;2023-06-26T01:49:18;101093.67;;;15.09;29.13
69219;BME280;56232;53.384;-2.732;2023-06-26T01:51:42;101094.86;;;15.11;29.08
69219;BME280;56232;53.384;-2.732;2023-06-26T01:54:07;101094.07;;;15.10;29.01
69219;BME280;56232;53.384;-2.732;2023-06-26T01:56:29;101095.55;;;15.61;28.96
69219;BME280;56232;53.384;-2.732;2023-06-26T01:58:55;101100.78;;;15.10;28.93
69219;BME280;56232;53.384;-2.732;2023-06-26T02:01:21;101102.08;;;15.59;28.89
69219;BME280;56232;53.384;-2.732;2023-06-26T02:03:46;101103.13;;;16.11;28.89
69219;BME280;56232;53.384;-2.732;2023-06-26T02:06:12;101102.96;;;15.44;28.92
69219;BME280;56232;53.384;-2.732;2023-06-26T02:08:37;101104.37;;;16.02;28.93
69219;BME280;56232;53.384;-2.732;2023-06-26T02:11:03;101107.10;;;15.43;28.86
69219;BME280;56232;53.384;-2.732;2023-06-26T02:13:29;101105.90;;;15.36;28.88
69219;BME280;56232;53.384;-2.732;2023-06-26T02:15:54;101108.01;;;14.83;28.88
69219;BME280;56232;53.384;-2.732;2023-06-26T02:18:20;101105.92;;;15.32;28.85
69219;BME280;56232;53.384;-2.732;2023-06-26T02:20:46;101103.65;;;15.26;28.94
69219;BME280;56232;53.384;-2.732;2023-06-26T02:23:12;101101.10;;;15.80;29.15
69219;BME280;56232;53.384;-2.732;2023-06-26T02:25:37;101104.15;;;15.76;28.99
69219;BME280;56232;53.384;-2.732;2023-06-26T02:28:03;101102.92;;;15.04;29.16
69219;BME280;56232;53.384;-2.732;2023-06-26T02:30:29;101103.33;;;14.99;29.18
69219;BME280;56232;53.384;-2.732;2023-06-26T02:32:54;101103.63;;;14.99;29.19
69219;BME280;56232;53.384;-2.732;2023-06-26T02:35:20;101104.06;;;15.57;29.13
69219;BME280;56232;53.384;-2.732;2023-06-26T02:37:46;101108.14;;;14.91;29.28
69219;BME280;56232;53.384;-2.732;2023-06-26T02:40:11;101111.89;;;14.96;29.33
69219;BME280;56232;53.384;-2.732;2023-06-26T02:42:37;101112.32;;;14.96;29.33
69219;BME280;56232;53.384;-2.732;2023-06-26T02:45:03;101113.82;;;15.55;29.16
69219;BME280;56232;53.384;-2.732;2023-06-26T02:47:28;101116.33;;;14.93;29.18
69219;BME280;56232;53.384;-2.732;2023-06-26T02:49:54;101114.82;;;14.43;29.19
69219;BME280;56232;53.384;-2.732;2023-06-26T02:52:20;101112.90;;;15.54;29.06
69219;BME280;56232;53.384;-2.732;2023-06-26T02:54:45;101116.84;;;14.44;29.00
69219;BME280;56232;53.384;-2.732;2023-06-26T02:57:11;101117.21;;;15.53;29.02
69219;BME280;56232;53.384;-2.732;2023-06-26T02:59:37;101121.10;;;15.48;28.94
69219;BME280;56232;53.384;-2.732;2023-06-26T03:02:03;101123.66;;;14.86;28.95
69219;BME280;56232;53.384;-2.732;2023-06-26T03:04:28;101128.98;;;15.46;28.90
69219;BME280;56232;53.384;-2.732;2023-06-26T03:06:54;101128.30;;;15.39;28.95
69219;BME280;56232;53.384;-2.732;2023-06-26T03:09:19;101126.75;;;15.27;29.08
69219;BME280;56232;53.384;-2.732;2023-06-26T03:11:45;101129.13;;;14.60;29.27
69219;BME280;56232;53.384;-2.732;2023-06-26T03:14:11;101131.74;;;15.16;29.41
69219;BME280;56232;53.384;-2.732;2023-06-26T03:16:37;101137.87;;;14.47;29.19
69219;BME280;56232;53.384;-2.732;2023-06-26T03:19:02;101137.30;;;15.02;29.66
69219;BME280;56232;53.384;-2.732;2023-06-26T03:21:28;101137.28;;;14.98;29.48
69219;BME280;56232;53.384;-2.732;2023-06-26T03:23:54;101141.92;;;14.86;29.89
69219;BME280;56232;53.384;-2.732;2023-06-26T03:26:19;101143.35;;;14.89;29.78
69219;BME280;56232;53.384;-2.732;2023-06-26T03:28:45;101147.44;;;14.26;30.22
69219;BME280;56232;53.384;-2.732;2023-06-26T03:31:11;101147.21;;;14.33;30.67
69219;BME280;56232;53.384;-2.732;2023-06-26T03:33:37;101147.28;;;14.35;30.56
69219;BME280;56232;53.384;-2.732;2023-06-26T03:36:02;101148.40;;;14.96;31.28
69219;BME280;56232;53.384;-2.732;2023-06-26T03:38:28;101149.55;;;14.93;31.08
69219;BME280;56232;53.384;-2.732;2023-06-26T03:40:53;101152.95;;;14.91;31.39
69219;BME280;56232;53.384;-2.732;2023-06-26T03:43:19;101151.23;;;14.91;30.82
69219;BME280;56232;53.384;-2.732;2023-06-26T03:45:45;101154.06;;;14.88;30.41
69219;BME280;56232;53.384;-2.732;2023-06-26T03:48:10;101160.45;;;14.84;30.11
69219;BME280;56232;53.384;-2.732;2023-06-26T03:50:36;101163.68;;;14.83;29.97
69219;BME280;56232;53.384;-2.732;2023-06-26T03:53:02;101169.15;;;14.80;29.85
69219;BME280;56232;53.384;-2.732;2023-06-26T03:55:27;101169.35;;;14.86;30.50
69219;BME280;56232;53.384;-2.732;2023-06-26T03:57:53;101170.88;;;14.86;29.97
69219;BME280;56232;53.384;-2.732;2023-06-26T04:00:19;101173.14;;;14.90;30.49
69219;BME280;56232;53.384;-2.732;2023-06-26T04:02:45;101173.60;;;15.01;31.13
69219;BME280;56232;53.384;-2.732;2023-06-26T04:05:10;101181.86;;;15.19;31.18
69219;BME280;56232;53.384;-2.732;2023-06-26T04:07:37;101186.44;;;14.73;31.27
69219;BME280;56232;53.384;-2.732;2023-06-26T04:10:02;101187.30;;;15.39;30.74
69219;BME280;56232;53.384;-2.732;2023-06-26T04:12:27;101187.40;;;14.90;31.34
69219;BME280;56232;53.384;-2.732;2023-06-26T04:14:53;101189.40;;;14.99;30.82
69219;BME280;56232;53.384;-2.732;2023-06-26T04:17:19;101191.77;;;15.62;30.99
69219;BME280;56232;53.384;-2.732;2023-06-26T04:19:44;101189.77;;;15.12;30.65
69219;BME280;56232;53.384;-2.732;2023-06-26T04:22:10;101187.47;;;15.84;30.18
69219;BME280;56232;53.384;-2.732;2023-06-26T04:24:36;101188.31;;;15.30;30.37
69219;BME280;56232;53.384;-2.732;2023-06-26T04:27:01;101191.82;;;14.91;30.66
69219;BME280;56232;53.384;-2.732;2023-06-26T04:29:27;101194.58;;;15.01;30.87
69219;BME280;56232;53.384;-2.732;2023-06-26T04:31:53;101196.67;;;15.49;29.61
69219;BME280;56232;53.384;-2.732;2023-06-26T04:34:18;101196.44;;;16.02;30.03
69219;BME280;56232;53.384;-2.732;2023-06-26T04:36:44;101196.66;;;15.37;30.23
69219;BME280;56232;53.384;-2.732;2023-06-26T04:39:09;101196.38;;;15.92;29.41
69219;BME280;56232;53.384;-2.732;2023-06-26T04:41:35;101205.54;;;15.81;29.16
69219;BME280;56232;53.384;-2.732;2023-06-26T04:44:00;101206.87;;;14.75;29.79
69219;BME280;56232;53.384;-2.732;2023-06-26T04:46:26;101208.49;;;15.92;28.90
69219;BME280;56232;53.384;-2.732;2023-06-26T04:48:52;101212.73;;;15.31;29.74
69219;BME280;56232;53.384;-2.732;2023-06-26T04:51:17;101208.33;;;16.00;28.98
69219;BME280;56232;53.384;-2.732;2023-06-26T04:53:43;101210.24;;;15.01;29.14
69219;BME280;56232;53.384;-2.732;2023-06-26T04:56:09;101216.08;;;15.15;28.88
69219;BME280;56232;53.384;-2.732;2023-06-26T04:58:34;101219.88;;;15.73;29.66
69219;BME280;56232;53.384;-2.732;2023-06-26T05:01:00;101220.53;;;15.44;28.94
69219;BME280;56232;53.384;-2.732;2023-06-26T05:03:25;101223.56;;;16.06;28.69
69219;BME280;56232;53.384;-2.732;2023-06-26T05:05:51;101227.52;;;16.78;28.46
69219;BME280;56232;53.384;-2.732;2023-06-26T05:08:18;101229.81;;;16.28;28.92
69219;BME280;56232;53.384;-2.732;2023-06-26T05:10:43;101230.64;;;16.13;29.84
69219;BME280;56232;53.384;-2.732;2023-06-26T05:13:08;101233.08;;;16.59;28.61
69219;BME280;56232;53.384;-2.732;2023-06-26T05:15:33;101236.36;;;16.72;28.92
69219;BME280;56232;53.384;-2.732;2023-06-26T05:17:59;101235.79;;;16.47;28.84
69219;BME280;56232;53.384;-2.732;2023-06-26T05:20:25;101237.89;;;17.15;28.48
69219;BME280;56232;53.384;-2.732;2023-06-26T05:22:50;101239.50;;;16.16;28.63
69219;BME280;56232;53.384;-2.732;2023-06-26T05:25:18;101246.86;;;16.21;29.36
69219;BME280;56232;53.384;-2.732;2023-06-26T05:27:42;101247.08;;;17.52;28.32
69219;BME280;56232;53.384;-2.732;2023-06-26T05:30:08;101249.34;;;16.55;28.40
69219;BME280;56232;53.384;-2.732;2023-06-26T05:32:34;101244.66;;;16.67;28.58
69219;BME280;56232;53.384;-2.732;2023-06-26T05:34:59;101248.01;;;16.80;28.95
69219;BME280;56232;53.384;-2.732;2023-06-26T05:37:25;101252.43;;;17.05;29.16
69219;BME280;56232;53.384;-2.732;2023-06-26T05:39:50;101248.34;;;17.19;28.15
69219;BME280;56232;53.384;-2.732;2023-06-26T05:42:16;101252.84;;;17.17;28.58
69219;BME280;56232;53.384;-2.732;2023-06-26T05:44:41;101249.03;;;17.43;28.30
69219;BME280;56232;53.384;-2.732;2023-06-26T05:47:06;101256.79;;;18.12;28.60
69219;BME280;56232;53.384;-2.732;2023-06-26T05:49:32;101258.08;;;17.68;28.63
69219;BME280;56232;53.384;-2.732;2023-06-26T05:51:57;101257.48;;;17.96;28.19
69219;BME280;56232;53.384;-2.732;2023-06-26T05:54:24;101259.13;;;17.66;28.38
69219;BME280;56232;53.384;-2.732;2023-06-26T05:56:49;101260.33;;;17.87;28.01
69219;BME280;56232;53.384;-2.732;2023-06-26T05:59:14;101259.34;;;18.12;28.23
69219;BME280;56232;53.384;-2.732;2023-06-26T06:01:39;101259.05;;;17.82;28.26
69219;BME280;56232;53.384;-2.732;2023-06-26T06:04:05;101257.13;;;18.27;28.53
69219;BME280;56232;53.384;-2.732;2023-06-26T06:06:30;101261.24;;;19.28;27.09
69219;BME280;56232;53.384;-2.732;2023-06-26T06:08:56;101266.33;;;19.09;27.09
69219;BME280;56232;53.384;-2.732;2023-06-26T06:11:22;101267.62;;;18.81;27.83
69219;BME280;56232;53.384;-2.732;2023-06-26T06:13:47;101272.23;;;19.37;27.14
69219;BME280;56232;53.384;-2.732;2023-06-26T06:16:13;101272.75;;;19.98;26.42
69219;BME280;56232;53.384;-2.732;2023-06-26T06:18:39;101273.70;;;21.69;25.23
69219;BME280;56232;53.384;-2.732;2023-06-26T06:21:04;101279.45;;;23.09;24.47
69219;BME280;56232;53.384;-2.732;2023-06-26T06:23:30;101274.54;;;22.76;24.31
69219;BME280;56232;53.384;-2.732;2023-06-26T06:25:55;101279.05;;;23.98;24.31
69219;BME280;56232;53.384;-2.732;2023-06-26T06:28:21;101278.66;;;24.19;23.61
69219;BME280;56232;53.384;-2.732;2023-06-26T06:30:47;101283.63;;;23.07;23.66
69219;BME280;56232;53.384;-2.732;2023-06-26T06:33:12;101279.93;;;23.73;23.31
69219;BME280;56232;53.384;-2.732;2023-06-26T06:35:38;101283.36;;;25.81;21.73
69219;BME280;56232;53.384;-2.732;2023-06-26T06:38:03;101286.91;;;29.44;19.75
69219;BME280;56232;53.384;-2.732;2023-06-26T06:40:29;101287.12;;;28.63;19.18
69219;BME280;56232;53.384;-2.732;2023-06-26T06:42:55;101288.23;;;27.86;19.39
69219;BME280;56232;53.384;-2.732;2023-06-26T06:45:20;101288.73;;;25.98;20.24
69219;BME280;56232;53.384;-2.732;2023-06-26T06:47:46;101294.15;;;24.41;21.17
69219;BME280;56232;53.384;-2.732;2023-06-26T06:50:11;101295.63;;;23.48;21.90
69219;BME280;56232;53.384;-2.732;2023-06-26T06:52:37;101302.25;;;25.75;20.69
69219;BME280;56232;53.384;-2.732;2023-06-26T06:55:02;101308.67;;;27.49;19.86
69219;BME280;56232;53.384;-2.732;2023-06-26T06:57:28;101312.71;;;27.40;19.67
69219;BME280;56232;53.384;-2.732;2023-06-26T06:59:53;101324.38;;;30.57;18.05
69219;BME280;56232;53.384;-2.732;2023-06-26T07:02:19;101323.29;;;32.30;16.54
69219;BME280;56232;53.384;-2.732;2023-06-26T07:04:44;101327.90;;;32.84;16.13
69219;BME280;56232;53.384;-2.732;2023-06-26T07:07:10;101325.72;;;34.92;14.11
69219;BME280;56232;53.384;-2.732;2023-06-26T07:09:36;101326.10;;;35.90;13.93
69219;BME280;56232;53.384;-2.732;2023-06-26T07:12:01;101331.15;;;31.38;15.53
69219;BME280;56232;53.384;-2.732;2023-06-26T07:14:26;101332.22;;;29.10;16.73
69219;BME280;56232;53.384;-2.732;2023-06-26T07:16:52;101330.67;;;31.13;16.02
69219;BME280;56232;53.384;-2.732;2023-06-26T07:19:17;101330.47;;;34.01;14.71
69219;BME280;56232;53.384;-2.732;2023-06-26T07:21:43;101332.52;;;36.54;13.66
69219;BME280;56232;53.384;-2.732;2023-06-26T07:24:08;101333.17;;;37.01;12.91
69219;BME280;56232;53.384;-2.732;2023-06-26T07:26:34;101345.78;;;34.32;13.82
69219;BME280;56232;53.384;-2.732;2023-06-26T07:28:59;101345.98;;;30.29;15.77
69219;BME280;56232;53.384;-2.732;2023-06-26T07:31:25;101347.59;;;28.26;17.35
69219;BME280;56232;53.384;-2.732;2023-06-26T07:33:51;101353.05;;;26.37;18.68
69219;BME280;56232;53.384;-2.732;2023-06-26T07:36:16;101345.20;;;28.77;17.94
69219;BME280;56232;53.384;-2.732;2023-06-26T07:38:43;101344.62;;;32.01;16.30
69219;BME280;56232;53.384;-2.732;2023-06-26T07:41:07;101343.86;;;31.42;16.04
69219;BME280;56232;53.384;-2.732;2023-06-26T07:43:33;101348.16;;;32.72;15.71
69219;BME280;56232;53.384;-2.732;2023-06-26T07:45:58;101342.06;;;30.27;16.17
69219;BME280;56232;53.384;-2.732;2023-06-26T07:48:24;101352.31;;;33.51;15.30
69219;BME280;56232;53.384;-2.732;2023-06-26T07:50:49;101352.65;;;33.38;15.11
69219;BME280;56232;53.384;-2.732;2023-06-26T07:53:15;101347.75;;;34.30;14.14
69219;BME280;56232;53.384;-2.732;2023-06-26T07:55:45;101345.17;;;36.48;13.35
69219;BME280;56232;53.384;-2.732;2023-06-26T07:58:07;101349.13;;;37.78;12.64
69219;BME280;56232;53.384;-2.732;2023-06-26T08:00:31;101351.57;;;37.47;12.26
69219;BME280;56232;53.384;-2.732;2023-06-26T08:03:16;101359.54;;;38.38;11.78
69219;BME280;56232;53.384;-2.732;2023-06-26T08:05:22;101355.60;;;39.33;11.28
69219;BME280;56232;53.384;-2.732;2023-06-26T08:07:48;101360.44;;;36.47;12.38
69219;BME280;56232;53.384;-2.732;2023-06-26T08:10:13;101358.96;;;34.01;13.76
69219;BME280;56232;53.384;-2.732;2023-06-26T08:12:39;101366.49;;;31.55;15.44
69219;BME280;56232;53.384;-2.732;2023-06-26T08:15:05;101370.00;;;29.38;16.74
69219;BME280;56232;53.384;-2.732;2023-06-26T08:17:30;101367.86;;;30.81;16.18
69219;BME280;56232;53.384;-2.732;2023-06-26T08:19:55;101375.26;;;29.28;17.40
69219;BME280;56232;53.384;-2.732;2023-06-26T08:22:21;101376.93;;;31.90;16.17
69219;BME280;56232;53.384;-2.732;2023-06-26T08:24:46;101370.16;;;34.54;14.95
69219;BME280;56232;53.384;-2.732;2023-06-26T08:27:12;101372.29;;;35.58;13.73
69219;BME280;56232;53.384;-2.732;2023-06-26T08:29:37;101367.31;;;36.81;13.33
69219;BME280;56232;53.384;-2.732;2023-06-26T08:32:03;101371.00;;;34.30;14.25
69219;BME280;56232;53.384;-2.732;2023-06-26T08:34:28;101377.64;;;34.37;14.43
69219;BME280;56232;53.384;-2.732;2023-06-26T08:36:54;101383.14;;;32.54;15.13
69219;BME280;56232;53.384;-2.732;2023-06-26T08:39:19;101380.52;;;32.71;15.34
69219;BME280;56232;53.384;-2.732;2023-06-26T08:41:45;101381.48;;;33.24;15.24
69219;BME280;56232;53.384;-2.732;2023-06-26T08:44:10;101378.03;;;34.62;14.57
69219;BME280;56232;53.384;-2.732;2023-06-26T08:46:36;101373.08;;;36.10;13.87
69219;BME280;56232;53.384;-2.732;2023-06-26T08:49:06;101387.23;;;36.53;13.31
69219;BME280;56232;53.384;-2.732;2023-06-26T08:51:28;101383.50;;;34.86;14.01
69219;BME280;56232;53.384;-2.732;2023-06-26T08:53:56;101394.14;;;32.46;15.39
69219;BME280;56232;53.384;-2.732;2023-06-26T08:56:19;101395.54;;;32.72;15.77
69219;BME280;56232;53.384;-2.732;2023-06-26T08:58:44;101395.87;;;31.19;16.26
69219;BME280;56232;53.384;-2.732;2023-06-26T09:01:09;101392.37;;;32.42;15.90
69219;BME280;56232;53.384;-2.732;2023-06-26T09:03:35;101394.57;;;34.31;15.49
69219;BME280;56232;53.384;-2.732;2023-06-26T09:06:00;101395.50;;;34.04;14.91
69219;BME280;56232;53.384;-2.732;2023-06-26T09:08:25;101394.11;;;34.23;15.26
69219;BME280;56232;53.384;-2.732;2023-06-26T09:10:51;101391.63;;;35.24;14.78
69219;BME280;56232;53.384;-2.732;2023-06-26T09:13:16;101383.38;;;35.82;14.19
69219;BME280;56232;53.384;-2.732;2023-06-26T09:15:43;101385.90;;;36.69;13.53
69219;BME280;56232;53.384;-2.732;2023-06-26T09:18:07;101392.00;;;37.33;13.34
69219;BME280;56232;53.384;-2.732;2023-06-26T09:20:32;101396.94;;;37.81;13.33
69219;BME280;56232;53.384;-2.732;2023-06-26T09:22:58;101397.44;;;37.71;13.61
69219;BME280;56232;53.384;-2.732;2023-06-26T09:25:23;101402.85;;;36.53;13.52
69219;BME280;56232;53.384;-2.732;2023-06-26T09:27:49;101406.56;;;37.24;13.09
69219;BME280;56232;53.384;-2.732;2023-06-26T09:30:17;101399.47;;;37.54;11.11
69219;BME280;56232;53.384;-2.732;2023-06-26T09:32:40;101397.91;;;36.18;11.91
69219;BME280;56232;53.384;-2.732;2023-06-26T09:35:05;101407.61;;;32.90;13.04
69219;BME280;56232;53.384;-2.732;2023-06-26T09:37:31;101416.12;;;31.83;13.84
69219;BME280;56232;53.384;-2.732;2023-06-26T09:39:56;101410.33;;;31.16;14.37
69219;BME280;56232;53.384;-2.732;2023-06-26T09:42:23;101410.12;;;30.14;15.24
69219;BME280;56232;53.384;-2.732;2023-06-26T09:44:48;101412.81;;;31.34;15.11
69219;BME280;56232;53.384;-2.732;2023-06-26T09:47:16;101418.57;;;32.40;14.51
69219;BME280;56232;53.384;-2.732;2023-06-26T09:49:42;101419.23;;;33.81;13.83
69219;BME280;56232;53.384;-2.732;2023-06-26T09:52:05;101410.31;;;34.63;13.14
69219;BME280;56232;53.384;-2.732;2023-06-26T09:54:29;101407.77;;;34.77;12.74
69219;BME280;56232;53.384;-2.732;2023-06-26T09:56:55;101417.53;;;33.64;12.89
69219;BME280;56232;53.384;-2.732;2023-06-26T09:59:20;101422.18;;;33.24;13.17
69219;BME280;56232;53.384;-2.732;2023-06-26T10:01:46;101426.38;;;32.10;13.75
69219;BME280;56232;53.384;-2.732;2023-06-26T10:04:11;101427.76;;;32.52;13.94
69219;BME280;56232;53.384;-2.732;2023-06-26T10:06:40;101425.49;;;33.36;13.44
69219;BME280;56232;53.384;-2.732;2023-06-26T10:09:03;101423.27;;;34.34;13.16
69219;BME280;56232;53.384;-2.732;2023-06-26T10:11:34;101436.45;;;34.45;13.26
69219;BME280;56232;53.384;-2.732;2023-06-26T10:13:55;101441.39;;;34.42;13.56
69219;BME280;56232;53.384;-2.732;2023-06-26T10:16:24;101439.41;;;33.83;13.64
69219;BME280;56232;53.384;-2.732;2023-06-26T10:18:44;101441.27;;;32.92;13.43
69219;BME280;56232;53.384;-2.732;2023-06-26T10:21:11;101439.45;;;33.77;13.54
69219;BME280;56232;53.384;-2.732;2023-06-26T10:23:36;101443.54;;;33.98;13.36
69219;BME280;56232;53.384;-2.732;2023-06-26T10:26:01;101447.16;;;34.04;13.48
69219;BME280;56232;53.384;-2.732;2023-06-26T10:28:28;101443.77;;;33.58;13.68
69219;BME280;56232;53.384;-2.732;2023-06-26T10:30:53;101447.30;;;33.72;13.75
69219;BME280;56232;53.384;-2.732;2023-06-26T10:33:18;101441.91;;;33.76;13.68
69219;BME280;56232;53.384;-2.732;2023-06-26T10:35:44;101448.94;;;34.18;13.47
69219;BME280;56232;53.384;-2.732;2023-06-26T10:38:09;101443.48;;;32.70;14.17
69219;BME280;56232;53.384;-2.732;2023-06-26T10:40:40;101449.85;;;30.38;14.86
69219;BME280;56232;53.384;-2.732;2023-06-26T10:43:07;101454.11;;;30.04;15.48
69219;BME280;56232;53.384;-2.732;2023-06-26T10:45:28;101453.44;;;29.18;16.33
69219;BME280;56232;53.384;-2.732;2023-06-26T10:47:52;101459.96;;;28.50;17.19
69219;BME280;56232;53.384;-2.732;2023-06-26T10:50:18;101457.12;;;27.33;17.94
69219;BME280;56232;53.384;-2.732;2023-06-26T10:52:42;101458.33;;;29.06;17.59
69219;BME280;56232;53.384;-2.732;2023-06-26T10:55:08;101453.33;;;29.68;17.06
69219;BME280;56232;53.384;-2.732;2023-06-26T10:57:35;101459.53;;;30.43;16.52
69219;BME280;56232;53.384;-2.732;2023-06-26T11:02:25;101465.11;;;30.82;16.42
69219;BME280;56232;53.384;-2.732;2023-06-26T11:04:50;101463.54;;;29.84;16.89
69219;BME280;56232;53.384;-2.732;2023-06-26T11:07:16;101469.83;;;29.01;17.14
69219;BME280;56232;53.384;-2.732;2023-06-26T11:09:55;101465.22;;;28.85;17.41
69219;BME280;56232;53.384;-2.732;2023-06-26T11:12:06;101463.44;;;28.65;17.56
69219;BME280;56232;53.384;-2.732;2023-06-26T11:14:32;101469.28;;;28.14;18.01
69219;BME280;56232;53.384;-2.732;2023-06-26T11:16:57;101462.53;;;27.60;18.12
69219;BME280;56232;53.384;-2.732;2023-06-26T11:19:22;101465.55;;;27.47;18.28
69219;BME280;56232;53.384;-2.732;2023-06-26T11:21:48;101470.86;;;26.94;18.65
69219;BME280;56232;53.384;-2.732;2023-06-26T11:24:14;101467.86;;;27.54;18.83
69219;BME280;56232;53.384;-2.732;2023-06-26T11:26:40;101478.78;;;26.92;19.13
69219;BME280;56232;53.384;-2.732;2023-06-26T11:29:05;101473.42;;;26.73;19.31
69219;BME280;56232;53.384;-2.732;2023-06-26T11:31:32;101473.13;;;26.18;19.73
69219;BME280;56232;53.384;-2.732;2023-06-26T11:33:56;101473.68;;;26.06;19.71
69219;BME280;56232;53.384;-2.732;2023-06-26T11:36:23;101482.81;;;27.04;19.81
69219;BME280;56232;53.384;-2.732;2023-06-26T11:38:52;101483.56;;;26.39;20.06
69219;BME280;56232;53.384;-2.732;2023-06-26T11:41:17;101477.38;;;26.58;19.68
69219;BME280;56232;53.384;-2.732;2023-06-26T11:43:39;101486.12;;;26.24;19.32
69219;BME280;56232;53.384;-2.732;2023-06-26T11:46:04;101481.14;;;26.66;19.48
69219;BME280;56232;53.384;-2.732;2023-06-26T11:48:29;101490.16;;;26.38;19.69
69219;BME280;56232;53.384;-2.732;2023-06-26T11:50:55;101482.22;;;26.40;19.50
69219;BME280;56232;53.384;-2.732;2023-06-26T11:53:20;101491.01;;;27.07;19.64
69219;BME280;56232;53.384;-2.732;2023-06-26T11:55:46;101481.78;;;26.55;19.35
69219;BME280;56232;53.384;-2.732;2023-06-26T11:58:11;101486.62;;;27.25;19.65
69219;BME280;56232;53.384;-2.732;2023-06-26T12:00:42;101488.44;;;27.07;19.20
69219;BME280;56232;53.384;-2.732;2023-06-26T12:03:03;101492.31;;;27.41;19.28
69219;BME280;56232;53.384;-2.732;2023-06-26T12:05:28;101487.59;;;27.38;19.17
69219;BME280;56232;53.384;-2.732;2023-06-26T12:07:54;101493.08;;;27.61;18.93
69219;BME280;56232;53.384;-2.732;2023-06-26T12:10:20;101500.77;;;27.52;19.07
69219;BME280;56232;53.384;-2.732;2023-06-26T12:12:45;101495.62;;;27.73;18.80
69219;BME280;56232;53.384;-2.732;2023-06-26T12:15:15;101497.69;;;28.30;18.44
69219;BME280;56232;53.384;-2.732;2023-06-26T12:17:38;101504.23;;;29.07;18.28
69219;BME280;56232;53.384;-2.732;2023-06-26T12:20:01;101507.30;;;28.74;18.03
69219;BME280;56232;53.384;-2.732;2023-06-26T12:22:33;101503.01;;;28.98;18.02
69219;BME280;56232;53.384;-2.732;2023-06-26T12:24:56;101508.66;;;28.51;18.04
69219;BME280;56232;53.384;-2.732;2023-06-26T12:27:18;101510.14;;;29.63;17.78
69219;BME280;56232;53.384;-2.732;2023-06-26T12:29:50;101514.51;;;30.14;18.04
69219;BME280;56232;53.384;-2.732;2023-06-26T12:32:09;101509.49;;;28.28;18.30
69219;BME280;56232;53.384;-2.732;2023-06-26T12:34:38;101509.07;;;27.93;18.49